createdAt,value
2018-12-07T00:11:44.476Z,100772.53
2018-12-07T00:25:00.608Z,100764.21
2018-12-07T00:36:12.687Z,100752.59
2018-12-07T00:38:41.297Z,100748.82
2018-12-07T00:41:09.960Z,100735.86
2018-12-07T00:43:38.849Z,100724.91
2018-12-07T00:46:07.860Z,100732.72
2018-12-07T00:48:36.930Z,100726.55
2018-12-07T00:51:05.835Z,100723.50
2018-12-07T00:53:34.499Z,100730.48
2018-12-07T00:56:03.100Z,100728.99
2018-12-07T00:58:32.101Z,100728.99
2018-12-07T01:01:00.689Z,100724.47
2018-12-07T01:03:29.963Z,100725.64
2018-12-07T03:04:44.325Z,100581.32
2018-12-07T03:16:19.649Z,100562.14
2018-12-07T03:22:03.827Z,100559.52
2018-12-07T03:24:53.546Z,100546.79
2018-12-07T03:30:13.030Z,100550.31
2018-12-07T03:33:55.961Z,100544.77
2018-12-07T03:37:04.669Z,100537.84
2018-12-07T03:39:52.951Z,100535.17
2018-12-07T03:52:06.314Z,100523.55
2018-12-07T03:54:35.010Z,100526.24
2018-12-07T03:59:31.476Z,100516.05
2018-12-07T04:02:00.222Z,100518.25
2018-12-07T04:04:28.690Z,100516.59
2018-12-07T04:06:57.391Z,100513.96
2018-12-07T04:09:27.353Z,100511.27
2018-12-07T04:11:55.769Z,100517.29
2018-12-07T04:14:24.575Z,100516.25
2018-12-07T04:16:53.337Z,100500.45
2018-12-07T04:19:21.867Z,100505.91
2018-12-07T04:21:50.211Z,100501.97
2018-12-07T04:24:19.205Z,100507.92
2018-12-07T04:26:47.892Z,100503.32
2018-12-07T04:29:16.564Z,100498.27
2018-12-07T04:31:44.950Z,100503.59
2018-12-07T04:34:13.687Z,100494.97
2018-12-07T04:36:42.203Z,100493.83
2018-12-07T04:39:10.746Z,100488.43
2018-12-07T04:41:39.724Z,100500.05
2018-12-07T04:44:08.155Z,100493.69
2018-12-07T04:46:36.557Z,100493.45
2018-12-07T04:49:04.958Z,100492.20
2018-12-07T04:51:33.682Z,100496.91
2018-12-07T04:54:02.204Z,100496.70
2018-12-07T04:56:30.678Z,100489.75
2018-12-07T04:58:59.084Z,100488.27
2018-12-07T05:01:27.841Z,100486.02
2018-12-07T05:03:56.127Z,100481.69
2018-12-07T05:06:24.661Z,100476.43
2018-12-07T05:08:53.035Z,100470.58
2018-12-07T05:11:21.404Z,100469.06
2018-12-07T05:14:11.743Z,100466.50
2018-12-07T05:16:40.015Z,100466.02
2018-12-07T05:19:08.665Z,100470.45
2018-12-07T05:21:37.081Z,100466.47
2018-12-07T05:24:05.444Z,100463.87
2018-12-07T05:26:53.300Z,100466.61
2018-12-07T05:29:21.584Z,100470.06
2018-12-07T05:31:49.845Z,100470.55
2018-12-07T05:34:18.250Z,100472.21
2018-12-07T05:36:46.896Z,100465.30
2018-12-07T05:39:15.255Z,100461.28
2018-12-07T05:41:43.687Z,100471.69
2018-12-07T05:44:12.142Z,100465.36
2018-12-07T05:51:43.726Z,100467.19
2018-12-07T05:54:12.110Z,100471.28
2018-12-07T05:56:40.535Z,100462.07
2018-12-07T05:59:08.819Z,100472.03
2018-12-07T06:01:37.196Z,100471.69
2018-12-07T06:04:05.502Z,100468.09
2018-12-07T06:06:34.195Z,100475.88
2018-12-07T06:09:23.842Z,100468.39
2018-12-07T06:11:52.594Z,100464.90
2018-12-07T06:14:21.013Z,100456.04
2018-12-07T06:16:50.064Z,100459.53
2018-12-07T06:19:18.548Z,100456.38
2018-12-07T06:21:47.337Z,100452.51
2018-12-07T06:24:15.764Z,100456.45
2018-12-07T06:26:44.221Z,100454.23
2018-12-07T06:29:12.625Z,100455.06
2018-12-07T06:31:41.456Z,100452.21
2018-12-07T06:34:09.934Z,100455.70
2018-12-07T06:36:38.362Z,100451.45
2018-12-07T06:39:09.587Z,100448.30
2018-12-07T06:41:38.074Z,100434.63
2018-12-07T06:44:06.322Z,100440.41
2018-12-07T06:46:35.072Z,100440.67
2018-12-07T06:49:22.498Z,100439.44
2018-12-07T06:51:50.795Z,100439.84
2018-12-07T06:54:19.071Z,100441.28
2018-12-07T06:56:47.701Z,100438.08
2018-12-07T06:59:15.954Z,100428.91
2018-12-07T07:01:44.360Z,100423.05
2018-12-07T07:04:12.808Z,100426.09
2018-12-07T07:06:41.095Z,100417.08
2018-12-07T07:09:09.605Z,100414.81
2018-12-07T07:11:37.958Z,100422.56
2018-12-07T07:14:06.237Z,100418.20
2018-12-07T07:16:34.610Z,100419.93
2018-12-07T07:19:03.139Z,100420.83
2018-12-07T07:21:31.514Z,100421.66
2018-12-07T07:23:59.904Z,100419.55
2018-12-07T07:26:28.706Z,100421.88
2018-12-07T07:28:57.105Z,100423.23
2018-12-07T07:31:25.686Z,100424.09
2018-12-07T07:33:54.450Z,100424.39
2018-12-07T07:36:23.184Z,100426.05
2018-12-07T07:38:51.575Z,100431.83
2018-12-07T07:41:20.270Z,100422.63
2018-12-07T07:43:48.670Z,100417.25
2018-12-07T07:46:17.035Z,100414.58
2018-12-07T07:48:45.477Z,100408.86
2018-12-07T07:56:15.416Z,100405.12
2018-12-07T08:03:39.089Z,100400.60
2018-12-07T08:18:55.706Z,100378.19
2018-12-07T08:21:24.191Z,100375.77
2018-12-07T08:23:52.617Z,100373.29
2018-12-07T08:26:21.175Z,100367.53
2018-12-07T08:28:49.910Z,100367.77
2018-12-07T08:31:19.103Z,100365.42
2018-12-07T08:33:47.704Z,100370.92
2018-12-07T08:36:16.082Z,100364.54
2018-12-07T08:38:44.693Z,100360.59
2018-12-07T08:41:13.131Z,100364.09
2018-12-07T08:44:01.189Z,100363.59
2018-12-07T08:46:29.762Z,100365.47
2018-12-07T08:48:58.170Z,100359.70
2018-12-07T08:51:26.683Z,100357.84
2018-12-07T08:53:55.077Z,100353.89
2018-12-07T08:56:23.969Z,100355.84
2018-12-07T08:58:52.335Z,100354.98
2018-12-07T09:01:20.785Z,100349.70
2018-12-07T09:03:49.164Z,100354.47
2018-12-07T09:06:17.704Z,100339.34
2018-12-07T09:08:47.316Z,100337.84
2018-12-07T09:11:15.779Z,100337.07
2018-12-07T09:13:44.171Z,100338.84
2018-12-07T09:16:12.783Z,100337.70
2018-12-07T09:18:41.260Z,100338.48
2018-12-07T09:21:09.646Z,100329.70
2018-12-07T09:23:38.076Z,100326.34
2018-12-07T09:26:06.456Z,100326.44
2018-12-07T09:28:35.151Z,100316.38
2018-12-07T09:31:22.614Z,100320.79
2018-12-07T09:33:51.244Z,100315.80
2018-12-07T09:36:19.625Z,100311.45
2018-12-07T09:38:48.093Z,100307.65
2018-12-07T09:41:16.385Z,100301.77
2018-12-07T09:43:44.681Z,100298.80
2018-12-07T09:46:13.139Z,100295.56
2018-12-07T09:48:43.150Z,100293.28
2018-12-07T09:51:11.707Z,100292.77
2018-12-07T09:53:40.427Z,100288.36
2018-12-07T09:56:08.820Z,100286.64
2018-12-07T09:58:37.109Z,100280.50
2018-12-07T10:01:05.834Z,100277.41
2018-12-07T10:06:44.858Z,100267.20
2018-12-07T10:09:12.005Z,100260.10
2018-12-07T10:11:39.260Z,100261.34
2018-12-07T10:14:06.425Z,100252.45
2018-12-07T10:16:34.709Z,100248.71
2018-12-07T10:19:01.926Z,100238.65
2018-12-07T10:21:29.174Z,100231.40
2018-12-07T10:23:56.343Z,100229.16
2018-12-07T10:26:23.483Z,100225.92
2018-12-07T10:28:51.664Z,100214.49
2018-12-07T10:31:18.883Z,100211.74
2018-12-07T10:33:46.069Z,100206.63
2018-12-07T10:36:13.264Z,100201.75
2018-12-07T10:38:40.444Z,100199.34
2018-12-07T10:41:07.593Z,100194.59
2018-12-07T10:43:34.996Z,100195.70
2018-12-07T10:46:02.189Z,100186.21
2018-12-07T10:48:29.354Z,100183.52
2018-12-07T10:50:56.579Z,100181.34
2018-12-07T10:53:23.756Z,100172.33
2018-12-07T10:55:50.992Z,100179.23
2018-12-07T10:58:18.241Z,100159.95
2018-12-07T11:00:51.529Z,100163.27
2018-12-07T11:03:25.608Z,100164.49
2018-12-07T11:05:58.451Z,100151.83
2018-12-07T11:08:34.949Z,100148.22
2018-12-07T11:11:07.858Z,100141.90
2018-12-07T11:13:40.239Z,100130.09
2018-12-07T11:16:14.002Z,100126.65
2018-12-07T11:18:47.262Z,100121.09
2018-12-07T11:21:21.046Z,100119.87
2018-12-07T11:23:53.832Z,100113.97
2018-12-07T11:26:27.367Z,100117.30
2018-12-07T11:29:00.313Z,100109.62
2018-12-07T11:31:33.137Z,100107.03
2018-12-07T11:34:11.859Z,100103.34
2018-12-07T11:36:39.173Z,100085.91
2018-12-07T11:39:09.023Z,100096.34
2018-12-07T11:41:36.320Z,100095.89
2018-12-07T11:44:03.606Z,100088.97
2018-12-07T11:46:30.740Z,100092.64
2018-12-07T11:48:58.095Z,100084.33
2018-12-07T11:51:25.264Z,100078.00
2018-12-07T11:53:52.399Z,100073.58
2018-12-07T11:56:20.468Z,100068.82
2018-12-07T11:58:47.632Z,100064.13
2018-12-07T12:01:14.857Z,100066.11
2018-12-07T12:03:42.034Z,100060.78
2018-12-07T12:06:09.165Z,100057.37
2018-12-07T12:08:36.883Z,100053.97
2018-12-07T12:11:04.128Z,100045.59
2018-12-07T12:13:31.322Z,100048.29
2018-12-07T12:15:58.482Z,100044.20
2018-12-07T12:18:25.719Z,100035.72
2018-12-07T12:20:52.893Z,100028.81
2018-12-07T12:23:20.064Z,100026.83
2018-12-07T12:25:47.336Z,100026.58
2018-12-07T12:28:14.503Z,100026.48
2018-12-07T12:30:41.755Z,100012.99
2018-12-07T12:33:08.951Z,100012.65
2018-12-07T12:35:36.161Z,100006.97
2018-12-07T12:38:03.296Z,100009.73
2018-12-07T12:40:30.606Z,100002.67
2018-12-07T12:42:57.845Z,99998.20
2018-12-07T12:45:24.958Z,99993.91
2018-12-07T12:47:52.243Z,99991.94
2018-12-07T12:50:25.130Z,99986.27
2018-12-07T12:52:52.472Z,99991.13
2018-12-07T12:55:19.677Z,99980.56
2018-12-07T12:57:46.816Z,99982.73
2018-12-07T13:00:14.000Z,99973.78
2018-12-07T13:02:41.135Z,99975.30
2018-12-07T13:05:08.299Z,99962.91
2018-12-07T13:07:35.524Z,99961.80
2018-12-07T13:10:02.934Z,99959.22
2018-12-07T13:12:30.093Z,99957.16
2018-12-07T13:14:57.270Z,99955.39
2018-12-07T13:17:24.460Z,99946.63
2018-12-07T13:19:51.591Z,99945.77
2018-12-07T13:22:18.827Z,99936.14
2018-12-07T13:24:45.979Z,99927.98
2018-12-07T13:27:13.148Z,99923.11
2018-12-07T13:29:40.353Z,99919.81
2018-12-07T13:32:07.626Z,99915.95
2018-12-07T13:34:34.944Z,99917.84
2018-12-07T13:37:02.180Z,99905.52
2018-12-07T13:39:29.411Z,99897.28
2018-12-07T13:41:56.660Z,99894.59
2018-12-07T13:44:24.079Z,99892.02
2018-12-07T13:47:03.484Z,99880.21
2018-12-07T13:49:30.800Z,99880.09
2018-12-07T13:51:58.477Z,99881.41
2018-12-07T13:54:25.729Z,99876.48
2018-12-07T13:56:53.176Z,99874.17
2018-12-07T13:59:20.490Z,99866.39
2018-12-07T14:01:47.737Z,99856.50
2018-12-07T14:04:15.031Z,99855.34
2018-12-07T14:06:42.473Z,99850.58
2018-12-07T14:09:09.686Z,99842.69
2018-12-07T14:11:37.177Z,99839.30
2018-12-07T14:14:04.755Z,99831.27
2018-12-07T14:16:32.140Z,99827.14
2018-12-07T14:18:59.618Z,99830.64
2018-12-07T14:21:26.845Z,99828.17
2018-12-07T14:23:54.061Z,99827.55
2018-12-07T14:26:21.329Z,99825.37
2018-12-07T14:28:48.582Z,99824.57
2018-12-07T14:31:15.941Z,99818.61
2018-12-07T14:33:43.424Z,99820.94
2018-12-07T14:36:10.707Z,99813.50
2018-12-07T14:38:38.079Z,99810.92
2018-12-07T14:41:05.479Z,99806.00
2018-12-07T14:43:33.720Z,99798.94
2018-12-07T14:46:01.124Z,99796.48
2018-12-07T14:48:28.415Z,99791.73
2018-12-07T14:50:55.724Z,99785.41
2018-12-07T14:53:22.927Z,99781.80
2018-12-07T14:55:50.213Z,99784.44
2018-12-07T14:58:17.603Z,99787.02
2018-12-07T15:00:45.000Z,99774.94
2018-12-07T15:03:12.329Z,99769.67
2018-12-07T15:05:39.704Z,99770.28
2018-12-07T15:08:07.007Z,99766.58
2018-12-07T15:10:36.538Z,99771.33
2018-12-07T15:13:04.110Z,99764.95
2018-12-07T15:15:31.761Z,99771.45
2018-12-07T15:17:59.234Z,99755.45
2018-12-07T15:20:26.545Z,99746.12
2018-12-07T15:22:54.003Z,99750.84
2018-12-07T15:25:21.422Z,99735.98
2018-12-07T15:27:48.920Z,99728.03
2018-12-07T15:30:16.443Z,99726.83
2018-12-07T15:32:43.784Z,99720.36
2018-12-07T15:35:11.233Z,99719.84
2018-12-07T15:37:38.861Z,99714.30
2018-12-07T15:40:08.461Z,99701.02
2018-12-07T15:42:36.000Z,99700.69
2018-12-07T15:45:04.626Z,99703.77
2018-12-07T15:47:32.200Z,99695.17
2018-12-07T15:49:59.561Z,99687.92
2018-12-07T15:52:26.975Z,99688.19
2018-12-07T15:54:54.357Z,99683.58
2018-12-07T15:57:21.596Z,99678.92
2018-12-07T15:59:48.774Z,99676.34
2018-12-07T16:02:16.171Z,99663.37
2018-12-07T16:04:43.791Z,99654.44
2018-12-07T16:07:10.930Z,99651.80
2018-12-07T16:09:38.267Z,99644.30
2018-12-07T16:12:05.690Z,99634.42
2018-12-07T16:14:33.007Z,99628.97
2018-12-07T16:17:00.449Z,99631.34
2018-12-07T16:19:28.023Z,99626.63
2018-12-07T16:21:55.338Z,99612.67
2018-12-07T16:24:22.795Z,99604.78
2018-12-07T16:26:50.131Z,99592.02
2018-12-07T16:29:17.408Z,99602.73
2018-12-07T16:31:44.795Z,99601.80
2018-12-07T16:34:12.120Z,99590.03
2018-12-07T16:36:39.552Z,99583.39
2018-12-07T16:39:07.696Z,99576.48
2018-12-07T16:41:35.102Z,99570.75
2018-12-07T16:44:02.454Z,99565.71
2018-12-07T16:46:30.827Z,99564.00
2018-12-07T16:48:58.368Z,99551.18
2018-12-07T16:51:25.817Z,99547.94
2018-12-07T16:53:53.794Z,99537.57
2018-12-07T16:56:21.362Z,99529.22
2018-12-07T16:58:48.966Z,99521.91
2018-12-07T17:01:16.511Z,99517.05
2018-12-07T17:03:43.978Z,99514.29
2018-12-07T17:06:11.402Z,99504.92
2018-12-07T17:08:38.885Z,99503.83
2018-12-07T17:11:06.347Z,99494.28
2018-12-07T17:13:33.595Z,99497.43
2018-12-07T17:16:00.818Z,99505.20
2018-12-07T17:18:28.434Z,99504.59
2018-12-07T17:20:55.752Z,99503.55
2018-12-07T17:23:22.948Z,99503.22
2018-12-07T17:25:50.270Z,99499.27
2018-12-07T17:28:18.568Z,99504.06
2018-12-07T17:30:45.747Z,99501.32
2018-12-07T17:33:13.097Z,99501.77
2018-12-07T17:35:40.560Z,99490.62
2018-12-07T17:38:08.159Z,99490.62
2018-12-07T17:40:35.279Z,99488.05
2018-12-07T17:43:04.682Z,99491.14
2018-12-07T17:45:32.265Z,99487.14
2018-12-07T17:47:59.718Z,99483.65
2018-12-07T17:50:27.131Z,99481.66
2018-12-07T17:52:54.570Z,99480.50
2018-12-07T17:55:21.930Z,99467.59
2018-12-07T17:57:50.476Z,99468.05
2018-12-07T18:00:17.925Z,99460.91
2018-12-07T18:02:45.118Z,99457.29
2018-12-07T18:05:12.412Z,99455.64
2018-12-07T18:07:39.884Z,99455.13
2018-12-07T18:10:08.295Z,99449.34
2018-12-07T18:12:35.719Z,99446.50
2018-12-07T18:15:03.564Z,99436.25
2018-12-07T18:17:30.750Z,99439.69
2018-12-07T18:19:58.053Z,99435.13
2018-12-07T18:22:26.258Z,99432.77
2018-12-07T18:24:53.583Z,99429.93
2018-12-07T18:27:20.966Z,99421.52
2018-12-07T18:29:48.236Z,99421.13
2018-12-07T18:32:15.451Z,99413.97
2018-12-07T18:34:42.671Z,99413.45
2018-12-07T18:37:10.347Z,99412.27
2018-12-07T18:39:37.684Z,99414.25
2018-12-07T18:42:05.144Z,99416.61
2018-12-07T18:44:32.445Z,99404.72
2018-12-07T18:46:59.863Z,99406.67
2018-12-07T18:49:27.221Z,99393.40
2018-12-07T18:51:54.654Z,99394.65
2018-12-07T18:54:22.085Z,99385.69
2018-12-07T18:56:49.489Z,99389.58
2018-12-07T18:59:17.170Z,99390.53
2018-12-07T19:01:44.568Z,99382.03
2018-12-07T19:04:11.984Z,99386.89
2018-12-07T19:06:39.391Z,99384.66
2018-12-07T19:09:08.453Z,99384.02
2018-12-07T19:11:35.766Z,99380.53
2018-12-07T19:14:03.336Z,99384.13
2018-12-07T19:16:30.727Z,99378.88
2018-12-07T19:18:58.043Z,99382.88
2018-12-07T19:21:25.261Z,99376.83
2018-12-07T19:23:52.517Z,99373.28
2018-12-07T19:26:19.948Z,99376.44
2018-12-07T19:28:47.242Z,99372.31
2018-12-07T19:31:14.651Z,99368.02
2018-12-07T19:33:42.043Z,99365.33
2018-12-07T19:36:09.600Z,99358.89
2018-12-07T19:38:36.957Z,99352.27
2018-12-07T19:41:04.125Z,99351.68
2018-12-07T19:43:31.578Z,99342.94
2018-12-07T19:45:58.842Z,99337.16
2018-12-07T19:48:26.123Z,99331.23
2018-12-07T19:50:53.673Z,99331.19
2018-12-07T19:53:21.171Z,99334.09
2018-12-07T19:55:48.582Z,99311.98
2018-12-07T19:58:15.919Z,99307.41
2018-12-07T20:00:43.534Z,99304.45
2018-12-07T20:03:11.047Z,99303.07
2018-12-07T20:05:38.505Z,99298.03
2018-12-07T20:08:05.866Z,99303.94
2018-12-07T20:10:33.769Z,99292.63
2018-12-07T20:13:02.035Z,99295.77
2018-12-07T20:15:29.305Z,99282.52
2018-12-07T20:17:56.699Z,99274.45
2018-12-07T20:20:24.272Z,99278.45
2018-12-07T20:22:52.065Z,99273.55
2018-12-07T20:25:19.292Z,99266.52
2018-12-07T20:27:46.639Z,99266.52
2018-12-07T20:30:14.019Z,99264.05
2018-12-07T20:32:43.066Z,99261.72
2018-12-07T20:35:10.655Z,99257.31
2018-12-07T20:37:37.979Z,99257.24
2018-12-07T20:40:05.586Z,99253.30
2018-12-07T20:42:36.927Z,99255.27
2018-12-07T20:45:04.620Z,99251.99
2018-12-07T20:47:31.908Z,99251.59
2018-12-07T20:49:59.645Z,99254.36
2018-12-07T20:52:27.051Z,99253.39
2018-12-07T20:54:54.641Z,99249.13
2018-12-07T20:57:23.268Z,99243.05
2018-12-07T20:59:50.773Z,99245.59
2018-12-07T21:02:18.275Z,99243.42
2018-12-07T21:04:45.624Z,99238.11
2018-12-07T21:07:44.606Z,99241.47
2018-12-07T21:10:38.483Z,99244.83
2018-12-07T21:13:27.915Z,99240.77
2018-12-07T21:15:55.435Z,99234.84
2018-12-07T21:18:22.622Z,99214.63
2018-12-07T21:20:50.090Z,99234.20
2018-12-07T21:23:17.482Z,99227.61
2018-12-07T21:25:44.692Z,99226.57
2018-12-07T21:28:11.824Z,99224.13
2018-12-07T21:30:49.033Z,99217.78
2018-12-07T21:33:22.519Z,99213.04
2018-12-07T21:36:07.466Z,99214.69
2018-12-07T21:38:35.095Z,99212.58
2018-12-07T21:41:03.169Z,99208.19
2018-12-07T21:43:31.614Z,99215.73
2018-12-07T21:46:00.259Z,99219.61
2018-12-07T21:48:29.285Z,99219.83
2018-12-07T21:51:20.223Z,99212.25
2018-12-07T21:53:47.528Z,99207.91
2018-12-07T21:56:14.881Z,99208.47
2018-12-07T21:58:42.212Z,99204.98
2018-12-07T22:01:09.482Z,99206.09
2018-12-07T22:03:36.879Z,99200.19
2018-12-07T22:06:04.193Z,99201.63
2018-12-07T22:08:31.436Z,99198.48
2018-12-07T22:10:58.876Z,99197.62
2018-12-07T22:13:26.408Z,99203.47
2018-12-07T22:15:53.606Z,99201.05
2018-12-07T22:18:21.115Z,99202.95
2018-12-07T22:20:48.651Z,99185.42
2018-12-07T22:23:15.899Z,99196.25
2018-12-07T22:25:43.131Z,99191.53
2018-12-07T22:28:10.609Z,99182.61
2018-12-07T22:30:38.234Z,99172.34
2018-12-07T22:33:05.806Z,99180.11
2018-12-07T22:35:33.696Z,99187.65
2018-12-07T22:38:01.160Z,99190.03
2018-12-07T22:40:28.501Z,99183.99
2018-12-07T22:42:55.977Z,99190.21
2018-12-07T22:45:23.228Z,99187.19
2018-12-07T22:47:50.665Z,99183.99
2018-12-07T22:50:18.069Z,99183.66
2018-12-07T22:52:45.221Z,99179.93
2018-12-07T22:55:12.483Z,99179.33
2018-12-07T22:57:39.739Z,99176.86
2018-12-07T23:00:08.219Z,99182.16
2018-12-07T23:02:35.588Z,99177.02
2018-12-07T23:05:03.040Z,99177.09
2018-12-07T23:07:30.205Z,99175.38
2018-12-07T23:09:57.375Z,99176.97
2018-12-07T23:12:24.584Z,99178.74
2018-12-07T23:14:51.863Z,99182.62
2018-12-07T23:17:19.145Z,99178.98
2018-12-07T23:19:46.359Z,99189.88
2018-12-07T23:22:13.539Z,99185.02
2018-12-07T23:24:40.720Z,99195.74
2018-12-07T23:27:07.948Z,99192.96
2018-12-07T23:29:35.122Z,99191.25
2018-12-07T23:32:02.288Z,99203.56
2018-12-07T23:34:29.522Z,99215.28
2018-12-07T23:36:56.773Z,99206.09
2018-12-07T23:39:23.949Z,99218.97
2018-12-07T23:41:51.196Z,99220.92
2018-12-07T23:44:18.363Z,99228.41
2018-12-07T23:46:45.532Z,99228.95
2018-12-07T23:49:12.762Z,99229.99
2018-12-07T23:51:39.978Z,99257.67
2018-12-07T23:54:07.305Z,99249.80
2018-12-07T23:56:34.530Z,99265.09
2018-12-07T23:59:01.659Z,99258.59
